sensor_id;sensor_type;location;lat;lon;timestamp;P1;durP1;ratioP1;P2;durP2;ratioP2
2650;SDS011;1335;48.180;16.342;2024-01-10T00:01:43;39.58;;;20.98;;
2650;SDS011;1335;48.180;16.342;2024-01-10T00:04:12;47.55;;;22.10;;
2650;SDS011;1335;48.180;16.342;2024-01-10T00:06:41;48.97;;;22.92;;
2650;SDS011;1335;48.180;16.342;2024-01-10T00:09:09;46.38;;;23.52;;
2650;SDS011;1335;48.180;16.342;2024-01-10T00:11:36;44.25;;;22.02;;
2650;SDS011;1335;48.180;16.342;2024-01-10T00:14:03;44.83;;;22.38;;
2650;SDS011;1335;48.180;16.342;2024-01-10T00:16:31;42.38;;;21.45;;
2650;SDS011;1335;48.180;16.342;2024-01-10T00:18:58;49.53;;;22.70;;
2650;SDS011;1335;48.180;16.342;2024-01-10T00:21:27;48.00;;;24.05;;
2650;SDS011;1335;48.180;16.342;2024-01-10T00:23:54;51.28;;;23.92;;
2650;SDS011;1335;48.180;16.342;2024-01-10T00:26:22;42.83;;;24.15;;
2650;SDS011;1335;48.180;16.342;2024-01-10T00:28:49;43.58;;;23.42;;
2650;SDS011;1335;48.180;16.342;2024-01-10T00:31:17;50.40;;;22.42;;
2650;SDS011;1335;48.180;16.342;2024-01-10T00:33:44;48.58;;;23.80;;
2650;SDS011;1335;48.180;16.342;2024-01-10T00:36:11;44.55;;;23.95;;
2650;SDS011;1335;48.180;16.342;2024-01-10T00:38:40;51.15;;;23.27;;
2650;SDS011;1335;48.180;16.342;2024-01-10T00:41:07;47.58;;;24.77;;
2650;SDS011;1335;48.180;16.342;2024-01-10T00:43:34;47.75;;;25.13;;
2650;SDS011;1335;48.180;16.342;2024-01-10T00:46:02;49.35;;;25.73;;
2650;SDS011;1335;48.180;16.342;2024-01-10T00:48:29;51.33;;;25.25;;
2650;SDS011;1335;48.180;16.342;2024-01-10T00:50:57;43.17;;;24.25;;
2650;SDS011;1335;48.180;16.342;2024-01-10T00:53:24;44.58;;;25.52;;
2650;SDS011;1335;48.180;16.342;2024-01-10T00:55:53;42.60;;;22.88;;
2650;SDS011;1335;48.180;16.342;2024-01-10T00:58:20;45.53;;;23.83;;
2650;SDS011;1335;48.180;16.342;2024-01-10T01:00:47;47.15;;;23.05;;
2650;SDS011;1335;48.180;16.342;2024-01-10T01:03:14;51.88;;;23.70;;
2650;SDS011;1335;48.180;16.342;2024-01-10T01:05:42;46.63;;;23.77;;
2650;SDS011;1335;48.180;16.342;2024-01-10T01:08:09;45.92;;;24.33;;
2650;SDS011;1335;48.180;16.342;2024-01-10T01:10:36;50.33;;;25.52;;
2650;SDS011;1335;48.180;16.342;2024-01-10T01:13:05;45.53;;;24.58;;
2650;SDS011;1335;48.180;16.342;2024-01-10T01:15:32;50.00;;;25.88;;
2650;SDS011;1335;48.180;16.342;2024-01-10T01:18:00;43.50;;;24.05;;
2650;SDS011;1335;48.180;16.342;2024-01-10T01:20:27;45.97;;;24.02;;
2650;SDS011;1335;48.180;16.342;2024-01-10T01:22:55;43.53;;;24.17;;
2650;SDS011;1335;48.180;16.342;2024-01-10T01:25:22;54.25;;;23.98;;
2650;SDS011;1335;48.180;16.342;2024-01-10T01:27:49;52.80;;;24.50;;
2650;SDS011;1335;48.180;16.342;2024-01-10T01:30:18;45.17;;;24.80;;
2650;SDS011;1335;48.180;16.342;2024-01-10T01:32:46;49.20;;;25.25;;
2650;SDS011;1335;48.180;16.342;2024-01-10T01:35:14;47.92;;;25.52;;
2650;SDS011;1335;48.180;16.342;2024-01-10T01:37:46;41.47;;;23.90;;
2650;SDS011;1335;48.180;16.342;2024-01-10T01:40:14;44.00;;;24.30;;
2650;SDS011;1335;48.180;16.342;2024-01-10T01:42:42;46.95;;;23.88;;
2650;SDS011;1335;48.180;16.342;2024-01-10T01:45:10;46.25;;;25.00;;
2650;SDS011;1335;48.180;16.342;2024-01-10T01:47:39;45.72;;;24.60;;
2650;SDS011;1335;48.180;16.342;2024-01-10T01:50:07;55.13;;;24.88;;
2650;SDS011;1335;48.180;16.342;2024-01-10T01:52:35;57.95;;;25.98;;
2650;SDS011;1335;48.180;16.342;2024-01-10T01:55:03;51.35;;;23.75;;
2650;SDS011;1335;48.180;16.342;2024-01-10T01:57:31;49.33;;;26.00;;
2650;SDS011;1335;48.180;16.342;2024-01-10T01:59:59;50.28;;;24.95;;
2650;SDS011;1335;48.180;16.342;2024-01-10T02:02:26;42.25;;;24.20;;
2650;SDS011;1335;48.180;16.342;2024-01-10T02:04:56;51.50;;;26.92;;
2650;SDS011;1335;48.180;16.342;2024-01-10T02:07:23;50.28;;;25.38;;
2650;SDS011;1335;48.180;16.342;2024-01-10T02:09:50;46.45;;;26.52;;
2650;SDS011;1335;48.180;16.342;2024-01-10T02:12:17;63.03;;;27.48;;
2650;SDS011;1335;48.180;16.342;2024-01-10T02:14:45;61.08;;;26.10;;
2650;SDS011;1335;48.180;16.342;2024-01-10T02:17:12;47.63;;;25.80;;
2650;SDS011;1335;48.180;16.342;2024-01-10T02:19:39;54.30;;;26.05;;
2650;SDS011;1335;48.180;16.342;2024-01-10T02:22:08;54.20;;;26.70;;
2650;SDS011;1335;48.180;16.342;2024-01-10T02:24:36;50.08;;;25.20;;
2650;SDS011;1335;48.180;16.342;2024-01-10T02:27:05;50.90;;;25.23;;
2650;SDS011;1335;48.180;16.342;2024-01-10T02:29:33;46.00;;;24.17;;
2650;SDS011;1335;48.180;16.342;2024-01-10T02:32:00;50.10;;;27.27;;
2650;SDS011;1335;48.180;16.342;2024-01-10T02:34:29;46.20;;;24.27;;
2650;SDS011;1335;48.180;16.342;2024-01-10T02:36:57;52.58;;;27.75;;
2650;SDS011;1335;48.180;16.342;2024-01-10T02:39:24;59.17;;;29.17;;
2650;SDS011;1335;48.180;16.342;2024-01-10T02:41:51;54.88;;;27.58;;
2650;SDS011;1335;48.180;16.342;2024-01-10T02:44:20;58.10;;;25.60;;
2650;SDS011;1335;48.180;16.342;2024-01-10T02:46:48;53.58;;;28.38;;
2650;SDS011;1335;48.180;16.342;2024-01-10T02:49:15;52.63;;;25.75;;
2650;SDS011;1335;48.180;16.342;2024-01-10T02:51:43;52.65;;;26.15;;
2650;SDS011;1335;48.180;16.342;2024-01-10T02:54:11;59.58;;;28.35;;
2650;SDS011;1335;48.180;16.342;2024-01-10T02:56:38;57.92;;;27.83;;
2650;SDS011;1335;48.180;16.342;2024-01-10T02:59:05;58.75;;;28.95;;
2650;SDS011;1335;48.180;16.342;2024-01-10T03:01:34;52.10;;;28.00;;
2650;SDS011;1335;48.180;16.342;2024-01-10T03:04:01;44.72;;;24.83;;
2650;SDS011;1335;48.180;16.342;2024-01-10T03:06:29;54.78;;;26.08;;
2650;SDS011;1335;48.180;16.342;2024-01-10T03:08:56;51.80;;;26.80;;
2650;SDS011;1335;48.180;16.342;2024-01-10T03:11:23;58.78;;;27.48;;
2650;SDS011;1335;48.180;16.342;2024-01-10T03:13:53;57.78;;;28.13;;
2650;SDS011;1335;48.180;16.342;2024-01-10T03:16:27;58.92;;;29.40;;
2650;SDS011;1335;48.180;16.342;2024-01-10T03:18:56;52.90;;;28.27;;
2650;SDS011;1335;48.180;16.342;2024-01-10T03:21:23;59.65;;;26.95;;
2650;SDS011;1335;48.180;16.342;2024-01-10T03:23:51;53.95;;;27.55;;
2650;SDS011;1335;48.180;16.342;2024-01-10T03:26:19;53.25;;;27.15;;
2650;SDS011;1335;48.180;16.342;2024-01-10T03:28:46;61.53;;;29.15;;
2650;SDS011;1335;48.180;16.342;2024-01-10T03:31:13;46.80;;;27.25;;
2650;SDS011;1335;48.180;16.342;2024-01-10T03:33:41;60.08;;;26.75;;
2650;SDS011;1335;48.180;16.342;2024-01-10T03:36:11;60.42;;;28.15;;
2650;SDS011;1335;48.180;16.342;2024-01-10T03:38:38;53.40;;;28.40;;
2650;SDS011;1335;48.180;16.342;2024-01-10T03:41:06;52.90;;;27.55;;
2650;SDS011;1335;48.180;16.342;2024-01-10T03:43:33;60.15;;;29.67;;
2650;SDS011;1335;48.180;16.342;2024-01-10T03:46:00;56.10;;;28.98;;
2650;SDS011;1335;48.180;16.342;2024-01-10T03:48:27;60.67;;;28.75;;
2650;SDS011;1335;48.180;16.342;2024-01-10T03:50:55;56.55;;;28.73;;
2650;SDS011;1335;48.180;16.342;2024-01-10T03:53:23;58.72;;;29.80;;
2650;SDS011;1335;48.180;16.342;2024-01-10T03:55:51;60.45;;;26.58;;
2650;SDS011;1335;48.180;16.342;2024-01-10T03:58:18;56.22;;;30.25;;
2650;SDS011;1335;48.180;16.342;2024-01-10T04:00:45;55.60;;;28.40;;
2650;SDS011;1335;48.180;16.342;2024-01-10T04:03:13;57.72;;;28.20;;
2650;SDS011;1335;48.180;16.342;2024-01-10T04:05:41;60.60;;;29.30;;
2650;SDS011;1335;48.180;16.342;2024-01-10T04:08:09;60.58;;;28.90;;
2650;SDS011;1335;48.180;16.342;2024-01-10T04:10:37;56.42;;;27.92;;
2650;SDS011;1335;48.180;16.342;2024-01-10T04:13:05;60.53;;;30.27;;
2650;SDS011;1335;48.180;16.342;2024-01-10T04:15:32;52.95;;;26.40;;
2650;SDS011;1335;48.180;16.342;2024-01-10T04:18:00;57.80;;;29.83;;
2650;SDS011;1335;48.180;16.342;2024-01-10T04:20:28;55.88;;;29.55;;
2650;SDS011;1335;48.180;16.342;2024-01-10T04:22:55;65.93;;;30.15;;
2650;SDS011;1335;48.180;16.342;2024-01-10T04:25:22;53.25;;;30.02;;
2650;SDS011;1335;48.180;16.342;2024-01-10T04:27:51;55.20;;;28.20;;
2650;SDS011;1335;48.180;16.342;2024-01-10T04:30:18;63.40;;;30.80;;
2650;SDS011;1335;48.180;16.342;2024-01-10T04:32:46;61.05;;;29.02;;
2650;SDS011;1335;48.180;16.342;2024-01-10T04:35:13;56.33;;;28.85;;
2650;SDS011;1335;48.180;16.342;2024-01-10T04:37:40;66.55;;;29.25;;
2650;SDS011;1335;48.180;16.342;2024-01-10T04:40:08;61.88;;;28.15;;
2650;SDS011;1335;48.180;16.342;2024-01-10T04:42:35;63.10;;;28.08;;
2650;SDS011;1335;48.180;16.342;2024-01-10T04:45:05;53.90;;;28.00;;
2650;SDS011;1335;48.180;16.342;2024-01-10T04:47:32;61.08;;;29.65;;
2650;SDS011;1335;48.180;16.342;2024-01-10T04:49:59;57.30;;;30.08;;
2650;SDS011;1335;48.180;16.342;2024-01-10T04:52:27;65.30;;;30.20;;
2650;SDS011;1335;48.180;16.342;2024-01-10T04:54:54;62.45;;;28.90;;
2650;SDS011;1335;48.180;16.342;2024-01-10T04:57:21;56.10;;;27.98;;
2650;SDS011;1335;48.180;16.342;2024-01-10T04:59:49;63.08;;;29.63;;
2650;SDS011;1335;48.180;16.342;2024-01-10T05:02:18;62.47;;;31.27;;
2650;SDS011;1335;48.180;16.342;2024-01-10T05:04:45;59.90;;;30.20;;
2650;SDS011;1335;48.180;16.342;2024-01-10T05:07:12;56.30;;;28.90;;
2650;SDS011;1335;48.180;16.342;2024-01-10T05:09:40;61.75;;;28.35;;
2650;SDS011;1335;48.180;16.342;2024-01-10T05:12:07;64.78;;;29.80;;
2650;SDS011;1335;48.180;16.342;2024-01-10T05:14:34;52.70;;;27.55;;
2650;SDS011;1335;48.180;16.342;2024-01-10T05:17:02;43.85;;;25.77;;
2650;SDS011;1335;48.180;16.342;2024-01-10T05:19:30;58.53;;;29.25;;
2650;SDS011;1335;48.180;16.342;2024-01-10T05:21:58;68.53;;;30.08;;
2650;SDS011;1335;48.180;16.342;2024-01-10T05:24:25;53.65;;;29.02;;
2650;SDS011;1335;48.180;16.342;2024-01-10T05:26:52;53.75;;;28.25;;
2650;SDS011;1335;48.180;16.342;2024-01-10T05:29:20;55.22;;;29.08;;
2650;SDS011;1335;48.180;16.342;2024-01-10T05:31:49;55.90;;;30.40;;
2650;SDS011;1335;48.180;16.342;2024-01-10T05:34:16;65.20;;;29.33;;
2650;SDS011;1335;48.180;16.342;2024-01-10T05:36:45;56.08;;;29.02;;
2650;SDS011;1335;48.180;16.342;2024-01-10T05:39:13;56.33;;;28.67;;
2650;SDS011;1335;48.180;16.342;2024-01-10T05:41:41;52.85;;;28.17;;
2650;SDS011;1335;48.180;16.342;2024-01-10T05:44:09;57.53;;;27.70;;
2650;SDS011;1335;48.180;16.342;2024-01-10T05:46:37;53.92;;;28.88;;
2650;SDS011;1335;48.180;16.342;2024-01-10T05:49:04;69.68;;;29.92;;
2650;SDS011;1335;48.180;16.342;2024-01-10T05:51:32;56.55;;;30.00;;
2650;SDS011;1335;48.180;16.342;2024-01-10T05:54:00;60.40;;;30.85;;
2650;SDS011;1335;48.180;16.342;2024-01-10T05:56:29;58.80;;;27.80;;
2650;SDS011;1335;48.180;16.342;2024-01-10T05:58:56;63.08;;;30.35;;
2650;SDS011;1335;48.180;16.342;2024-01-10T06:01:24;52.22;;;27.73;;
2650;SDS011;1335;48.180;16.342;2024-01-10T06:03:51;54.17;;;29.05;;
2650;SDS011;1335;48.180;16.342;2024-01-10T06:06:18;55.42;;;26.95;;
2650;SDS011;1335;48.180;16.342;2024-01-10T06:08:46;53.10;;;28.27;;
2650;SDS011;1335;48.180;16.342;2024-01-10T06:11:14;53.17;;;29.85;;
2650;SDS011;1335;48.180;16.342;2024-01-10T06:13:41;60.17;;;30.25;;
2650;SDS011;1335;48.180;16.342;2024-01-10T06:16:09;63.45;;;29.83;;
2650;SDS011;1335;48.180;16.342;2024-01-10T06:18:36;48.22;;;28.08;;
2650;SDS011;1335;48.180;16.342;2024-01-10T06:21:03;55.47;;;30.50;;
2650;SDS011;1335;48.180;16.342;2024-01-10T06:23:31;55.35;;;27.98;;
2650;SDS011;1335;48.180;16.342;2024-01-10T06:25:58;58.60;;;28.75;;
2650;SDS011;1335;48.180;16.342;2024-01-10T06:28:26;50.33;;;26.25;;
2650;SDS011;1335;48.180;16.342;2024-01-10T06:30:54;54.70;;;28.02;;
2650;SDS011;1335;48.180;16.342;2024-01-10T06:33:21;62.03;;;30.88;;
2650;SDS011;1335;48.180;16.342;2024-01-10T06:35:48;61.05;;;29.73;;
2650;SDS011;1335;48.180;16.342;2024-01-10T06:38:16;57.95;;;27.67;;
2650;SDS011;1335;48.180;16.342;2024-01-10T06:40:45;63.97;;;29.90;;
2650;SDS011;1335;48.180;16.342;2024-01-10T06:43:12;55.90;;;28.45;;
2650;SDS011;1335;48.180;16.342;2024-01-10T06:45:41;58.40;;;28.83;;
2650;SDS011;1335;48.180;16.342;2024-01-10T06:48:08;55.72;;;27.48;;
2650;SDS011;1335;48.180;16.342;2024-01-10T06:50:36;61.95;;;26.95;;
2650;SDS011;1335;48.180;16.342;2024-01-10T06:53:04;60.97;;;29.40;;
2650;SDS011;1335;48.180;16.342;2024-01-10T06:55:31;53.30;;;26.15;;
2650;SDS011;1335;48.180;16.342;2024-01-10T06:57:58;55.53;;;28.10;;
2650;SDS011;1335;48.180;16.342;2024-01-10T07:00:25;60.95;;;28.67;;
2650;SDS011;1335;48.180;16.342;2024-01-10T07:02:54;52.47;;;27.58;;
2650;SDS011;1335;48.180;16.342;2024-01-10T07:05:21;50.05;;;27.83;;
2650;SDS011;1335;48.180;16.342;2024-01-10T07:07:49;58.42;;;28.00;;
2650;SDS011;1335;48.180;16.342;2024-01-10T07:10:16;57.42;;;28.08;;
2650;SDS011;1335;48.180;16.342;2024-01-10T07:12:43;50.65;;;27.60;;
2650;SDS011;1335;48.180;16.342;2024-01-10T07:15:11;59.72;;;28.27;;
2650;SDS011;1335;48.180;16.342;2024-01-10T07:17:38;64.28;;;30.10;;
2650;SDS011;1335;48.180;16.342;2024-01-10T07:20:08;51.40;;;27.15;;
2650;SDS011;1335;48.180;16.342;2024-01-10T07:22:37;53.83;;;26.48;;
2650;SDS011;1335;48.180;16.342;2024-01-10T07:25:06;55.42;;;27.83;;
2650;SDS011;1335;48.180;16.342;2024-01-10T07:27:34;53.65;;;27.30;;
2650;SDS011;1335;48.180;16.342;2024-01-10T07:30:03;51.55;;;28.13;;
2650;SDS011;1335;48.180;16.342;2024-01-10T07:32:30;47.75;;;26.48;;
2650;SDS011;1335;48.180;16.342;2024-01-10T07:34:57;52.95;;;27.92;;
2650;SDS011;1335;48.180;16.342;2024-01-10T07:37:26;57.28;;;24.92;;
2650;SDS011;1335;48.180;16.342;2024-01-10T07:39:53;49.90;;;27.20;;
2650;SDS011;1335;48.180;16.342;2024-01-10T07:42:22;49.38;;;26.08;;
2650;SDS011;1335;48.180;16.342;2024-01-10T07:44:49;53.80;;;25.45;;
2650;SDS011;1335;48.180;16.342;2024-01-10T07:47:18;56.67;;;27.60;;
2650;SDS011;1335;48.180;16.342;2024-01-10T07:49:45;49.65;;;26.67;;
2650;SDS011;1335;48.180;16.342;2024-01-10T07:52:12;56.35;;;28.05;;
2650;SDS011;1335;48.180;16.342;2024-01-10T07:54:42;44.38;;;24.63;;
2650;SDS011;1335;48.180;16.342;2024-01-10T07:57:10;53.55;;;28.23;;
2650;SDS011;1335;48.180;16.342;2024-01-10T07:59:37;52.58;;;27.40;;
2650;SDS011;1335;48.180;16.342;2024-01-10T08:02:04;52.20;;;29.10;;
2650;SDS011;1335;48.180;16.342;2024-01-10T08:04:32;53.80;;;29.88;;
2650;SDS011;1335;48.180;16.342;2024-01-10T08:06:59;46.10;;;27.83;;
2650;SDS011;1335;48.180;16.342;2024-01-10T08:09:27;54.05;;;28.67;;
2650;SDS011;1335;48.180;16.342;2024-01-10T08:11:55;53.67;;;29.25;;
2650;SDS011;1335;48.180;16.342;2024-01-10T08:14:23;60.15;;;27.63;;
2650;SDS011;1335;48.180;16.342;2024-01-10T08:16:51;50.45;;;26.85;;
2650;SDS011;1335;48.180;16.342;2024-01-10T08:19:19;52.75;;;29.60;;
2650;SDS011;1335;48.180;16.342;2024-01-10T08:21:47;43.80;;;26.33;;
2650;SDS011;1335;48.180;16.342;2024-01-10T08:24:15;63.25;;;28.23;;
2650;SDS011;1335;48.180;16.342;2024-01-10T08:26:42;57.22;;;27.85;;
2650;SDS011;1335;48.180;16.342;2024-01-10T08:29:12;49.85;;;28.75;;
2650;SDS011;1335;48.180;16.342;2024-01-10T08:31:40;65.20;;;31.15;;
2650;SDS011;1335;48.180;16.342;2024-01-10T08:34:07;50.97;;;25.65;;
2650;SDS011;1335;48.180;16.342;2024-01-10T08:36:35;60.95;;;31.00;;
2650;SDS011;1335;48.180;16.342;2024-01-10T08:39:02;56.45;;;29.63;;
2650;SDS011;1335;48.180;16.342;2024-01-10T08:41:29;59.17;;;29.55;;
2650;SDS011;1335;48.180;16.342;2024-01-10T08:43:57;63.88;;;30.67;;
2650;SDS011;1335;48.180;16.342;2024-01-10T08:46:26;57.00;;;29.83;;
2650;SDS011;1335;48.180;16.342;2024-01-10T08:48:53;56.40;;;27.95;;
2650;SDS011;1335;48.180;16.342;2024-01-10T08:51:21;52.97;;;29.60;;
2650;SDS011;1335;48.180;16.342;2024-01-10T08:53:48;58.63;;;30.45;;
2650;SDS011;1335;48.180;16.342;2024-01-10T08:56:15;54.90;;;31.83;;
2650;SDS011;1335;48.180;16.342;2024-01-10T08:58:43;58.22;;;30.33;;
2650;SDS011;1335;48.180;16.342;2024-01-10T09:01:10;51.30;;;26.58;;
2650;SDS011;1335;48.180;16.342;2024-01-10T09:03:39;56.55;;;30.80;;
2650;SDS011;1335;48.180;16.342;2024-01-10T09:06:06;51.72;;;29.17;;
2650;SDS011;1335;48.180;16.342;2024-01-10T09:08:34;47.15;;;28.33;;
2650;SDS011;1335;48.180;16.342;2024-01-10T09:11:01;46.05;;;28.15;;
2650;SDS011;1335;48.180;16.342;2024-01-10T09:13:29;48.17;;;29.52;;
2650;SDS011;1335;48.180;16.342;2024-01-10T09:15:56;49.72;;;27.40;;
2650;SDS011;1335;48.180;16.342;2024-01-10T09:18:23;50.22;;;28.67;;
2650;SDS011;1335;48.180;16.342;2024-01-10T09:20:52;49.28;;;27.45;;
2650;SDS011;1335;48.180;16.342;2024-01-10T09:23:20;43.83;;;27.13;;
2650;SDS011;1335;48.180;16.342;2024-01-10T09:25:47;45.25;;;26.50;;
2650;SDS011;1335;48.180;16.342;2024-01-10T09:28:14;45.80;;;26.88;;
2650;SDS011;1335;48.180;16.342;2024-01-10T09:30:42;42.43;;;27.10;;
2650;SDS011;1335;48.180;16.342;2024-01-10T09:33:09;44.63;;;28.70;;
2650;SDS011;1335;48.180;16.342;2024-01-10T09:35:37;45.38;;;29.85;;
2650;SDS011;1335;48.180;16.342;2024-01-10T09:38:06;46.73;;;29.50;;
2650;SDS011;1335;48.180;16.342;2024-01-10T09:40:33;43.77;;;28.07;;
2650;SDS011;1335;48.180;16.342;2024-01-10T09:43:01;47.63;;;28.33;;
2650;SDS011;1335;48.180;16.342;2024-01-10T09:45:28;43.30;;;28.60;;
2650;SDS011;1335;48.180;16.342;2024-01-10T09:47:59;45.47;;;29.90;;
2650;SDS011;1335;48.180;16.342;2024-01-10T09:50:26;47.43;;;30.57;;
2650;SDS011;1335;48.180;16.342;2024-01-10T09:52:58;44.77;;;27.93;;
2650;SDS011;1335;48.180;16.342;2024-01-10T09:55:30;50.80;;;30.20;;
2650;SDS011;1335;48.180;16.342;2024-01-10T09:58:01;47.80;;;28.70;;
2650;SDS011;1335;48.180;16.342;2024-01-10T10:00:30;48.83;;;31.07;;
2650;SDS011;1335;48.180;16.342;2024-01-10T10:02:57;45.53;;;30.03;;
2650;SDS011;1335;48.180;16.342;2024-01-10T10:05:25;45.70;;;30.03;;
2650;SDS011;1335;48.180;16.342;2024-01-10T10:07:53;51.63;;;30.83;;
2650;SDS011;1335;48.180;16.342;2024-01-10T10:10:20;50.37;;;30.40;;
2650;SDS011;1335;48.180;16.342;2024-01-10T10:12:49;45.60;;;28.20;;
2650;SDS011;1335;48.180;16.342;2024-01-10T10:15:17;42.00;;;27.77;;
2650;SDS011;1335;48.180;16.342;2024-01-10T10:17:47;43.27;;;28.20;;
2650;SDS011;1335;48.180;16.342;2024-01-10T10:20:14;43.00;;;28.23;;
2650;SDS011;1335;48.180;16.342;2024-01-10T10:22:59;47.13;;;29.97;;
2650;SDS011;1335;48.180;16.342;2024-01-10T10:25:27;43.60;;;28.03;;
2650;SDS011;1335;48.180;16.342;2024-01-10T10:27:57;44.90;;;27.40;;
2650;SDS011;1335;48.180;16.342;2024-01-10T10:30:25;40.40;;;27.00;;
2650;SDS011;1335;48.180;16.342;2024-01-10T10:32:52;38.60;;;25.53;;
2650;SDS011;1335;48.180;16.342;2024-01-10T10:35:20;39.80;;;26.80;;
2650;SDS011;1335;48.180;16.342;2024-01-10T10:37:47;46.63;;;27.47;;
2650;SDS011;1335;48.180;16.342;2024-01-10T10:40:15;44.17;;;26.70;;
2650;SDS011;1335;48.180;16.342;2024-01-10T10:42:43;42.37;;;25.93;;
2650;SDS011;1335;48.180;16.342;2024-01-10T10:45:14;43.77;;;26.67;;
2650;SDS011;1335;48.180;16.342;2024-01-10T10:47:42;39.57;;;25.20;;
2650;SDS011;1335;48.180;16.342;2024-01-10T10:50:12;40.03;;;24.53;;
2650;SDS011;1335;48.180;16.342;2024-01-10T10:52:40;42.90;;;26.40;;
2650;SDS011;1335;48.180;16.342;2024-01-10T10:55:09;41.93;;;26.60;;
2650;SDS011;1335;48.180;16.342;2024-01-10T10:57:38;37.23;;;25.87;;
2650;SDS011;1335;48.180;16.342;2024-01-10T11:00:06;37.97;;;24.37;;
2650;SDS011;1335;48.180;16.342;2024-01-10T11:02:37;47.10;;;25.23;;
2650;SDS011;1335;48.180;16.342;2024-01-10T11:05:04;36.87;;;24.33;;
2650;SDS011;1335;48.180;16.342;2024-01-10T11:07:34;44.00;;;27.93;;
2650;SDS011;1335;48.180;16.342;2024-01-10T11:10:02;38.73;;;26.23;;
2650;SDS011;1335;48.180;16.342;2024-01-10T11:12:34;39.33;;;24.47;;
2650;SDS011;1335;48.180;16.342;2024-01-10T11:15:09;43.57;;;25.10;;
2650;SDS011;1335;48.180;16.342;2024-01-10T11:17:49;36.00;;;23.63;;
2650;SDS011;1335;48.180;16.342;2024-01-10T11:20:29;32.80;;;22.50;;
2650;SDS011;1335;48.180;16.342;2024-01-10T11:23:10;28.40;;;20.20;;
2650;SDS011;1335;48.180;16.342;2024-01-10T11:25:40;23.80;;;15.67;;
2650;SDS011;1335;48.180;16.342;2024-01-10T11:28:07;23.87;;;15.17;;
2650;SDS011;1335;48.180;16.342;2024-01-10T11:30:35;19.57;;;14.00;;
2650;SDS011;1335;48.180;16.342;2024-01-10T11:33:13;17.67;;;13.53;;
2650;SDS011;1335;48.180;16.342;2024-01-10T11:38:27;22.00;;;13.53;;
2650;SDS011;1335;48.180;16.342;2024-01-10T11:40:54;25.27;;;14.07;;
2650;SDS011;1335;48.180;16.342;2024-01-10T11:43:23;23.93;;;14.47;;
2650;SDS011;1335;48.180;16.342;2024-01-10T11:45:51;19.83;;;12.87;;
2650;SDS011;1335;48.180;16.342;2024-01-10T11:48:26;18.57;;;12.33;;
2650;SDS011;1335;48.180;16.342;2024-01-10T11:50:54;19.23;;;12.93;;
2650;SDS011;1335;48.180;16.342;2024-01-10T11:53:43;24.07;;;15.00;;
2650;SDS011;1335;48.180;16.342;2024-01-10T11:56:12;21.53;;;13.73;;
2650;SDS011;1335;48.180;16.342;2024-01-10T11:58:54;20.80;;;13.50;;
2650;SDS011;1335;48.180;16.342;2024-01-10T12:01:22;18.63;;;13.03;;
2650;SDS011;1335;48.180;16.342;2024-01-10T12:03:51;19.43;;;14.10;;
2650;SDS011;1335;48.180;16.342;2024-01-10T12:06:20;17.33;;;12.30;;
2650;SDS011;1335;48.180;16.342;2024-01-10T12:08:48;21.50;;;13.60;;
2650;SDS011;1335;48.180;16.342;2024-01-10T12:11:16;21.63;;;13.73;;
2650;SDS011;1335;48.180;16.342;2024-01-10T12:13:44;25.33;;;15.50;;
2650;SDS011;1335;48.180;16.342;2024-01-10T12:16:13;23.30;;;14.50;;
2650;SDS011;1335;48.180;16.342;2024-01-10T12:18:41;24.07;;;14.20;;
2650;SDS011;1335;48.180;16.342;2024-01-10T12:21:10;22.13;;;13.73;;
2650;SDS011;1335;48.180;16.342;2024-01-10T12:23:38;19.50;;;13.67;;
2650;SDS011;1335;48.180;16.342;2024-01-10T12:26:07;20.80;;;14.03;;
2650;SDS011;1335;48.180;16.342;2024-01-10T12:28:37;23.10;;;14.60;;
2650;SDS011;1335;48.180;16.342;2024-01-10T12:31:04;26.10;;;16.30;;
2650;SDS011;1335;48.180;16.342;2024-01-10T12:33:32;25.07;;;17.30;;
2650;SDS011;1335;48.180;16.342;2024-01-10T12:36:06;24.63;;;16.30;;
2650;SDS011;1335;48.180;16.342;2024-01-10T12:38:35;23.87;;;16.50;;
2650;SDS011;1335;48.180;16.342;2024-01-10T12:41:03;24.20;;;16.57;;
2650;SDS011;1335;48.180;16.342;2024-01-10T12:43:33;27.40;;;18.67;;
2650;SDS011;1335;48.180;16.342;2024-01-10T12:46:05;26.83;;;17.03;;
2650;SDS011;1335;48.180;16.342;2024-01-10T12:48:32;24.97;;;17.80;;
2650;SDS011;1335;48.180;16.342;2024-01-10T12:51:01;25.43;;;17.97;;
2650;SDS011;1335;48.180;16.342;2024-01-10T12:53:31;26.00;;;18.13;;
2650;SDS011;1335;48.180;16.342;2024-01-10T12:56:00;23.83;;;17.37;;
2650;SDS011;1335;48.180;16.342;2024-01-10T12:58:27;26.70;;;17.17;;
2650;SDS011;1335;48.180;16.342;2024-01-10T13:00:55;28.50;;;18.13;;
2650;SDS011;1335;48.180;16.342;2024-01-10T13:03:31;29.00;;;17.60;;
2650;SDS011;1335;48.180;16.342;2024-01-10T13:05:58;29.57;;;17.77;;
2650;SDS011;1335;48.180;16.342;2024-01-10T13:08:26;29.50;;;17.97;;
2650;SDS011;1335;48.180;16.342;2024-01-10T13:10:53;26.20;;;18.07;;
2650;SDS011;1335;48.180;16.342;2024-01-10T13:13:21;29.80;;;18.97;;
2650;SDS011;1335;48.180;16.342;2024-01-10T13:15:48;29.73;;;18.30;;
2650;SDS011;1335;48.180;16.342;2024-01-10T13:18:16;25.70;;;17.60;;
2650;SDS011;1335;48.180;16.342;2024-01-10T13:20:45;28.83;;;18.10;;
2650;SDS011;1335;48.180;16.342;2024-01-10T13:23:13;23.60;;;18.13;;
2650;SDS011;1335;48.180;16.342;2024-01-10T13:25:41;24.53;;;16.50;;
2650;SDS011;1335;48.180;16.342;2024-01-10T13:28:08;27.73;;;17.93;;
2650;SDS011;1335;48.180;16.342;2024-01-10T13:30:37;28.07;;;17.30;;
2650;SDS011;1335;48.180;16.342;2024-01-10T13:33:06;23.33;;;17.73;;
2650;SDS011;1335;48.180;16.342;2024-01-10T13:35:34;22.23;;;16.07;;
2650;SDS011;1335;48.180;16.342;2024-01-10T13:38:03;24.20;;;17.23;;
2650;SDS011;1335;48.180;16.342;2024-01-10T13:40:30;27.03;;;17.90;;
2650;SDS011;1335;48.180;16.342;2024-01-10T13:42:59;26.47;;;17.33;;
2650;SDS011;1335;48.180;16.342;2024-01-10T13:45:28;26.23;;;17.57;;
2650;SDS011;1335;48.180;16.342;2024-01-10T13:47:55;29.70;;;16.47;;
2650;SDS011;1335;48.180;16.342;2024-01-10T13:50:22;26.00;;;17.23;;
2650;SDS011;1335;48.180;16.342;2024-01-10T13:52:50;25.23;;;17.20;;
2650;SDS011;1335;48.180;16.342;2024-01-10T13:55:20;23.67;;;15.50;;
2650;SDS011;1335;48.180;16.342;2024-01-10T13:57:49;25.70;;;15.40;;
2650;SDS011;1335;48.180;16.342;2024-01-10T14:00:16;21.65;;;15.95;;
2650;SDS011;1335;48.180;16.342;2024-01-10T14:02:43;29.00;;;16.07;;
2650;SDS011;1335;48.180;16.342;2024-01-10T14:05:11;25.92;;;14.05;;
2650;SDS011;1335;48.180;16.342;2024-01-10T14:07:38;26.60;;;15.35;;
2650;SDS011;1335;48.180;16.342;2024-01-10T14:10:09;22.20;;;14.38;;
2650;SDS011;1335;48.180;16.342;2024-01-10T14:12:39;27.63;;;15.85;;
2650;SDS011;1335;48.180;16.342;2024-01-10T14:15:07;30.40;;;16.55;;
2650;SDS011;1335;48.180;16.342;2024-01-10T14:17:35;20.17;;;14.40;;
2650;SDS011;1335;48.180;16.342;2024-01-10T14:20:02;23.20;;;15.13;;
2650;SDS011;1335;48.180;16.342;2024-01-10T14:22:31;21.77;;;15.32;;
2650;SDS011;1335;48.180;16.342;2024-01-10T14:24:58;31.27;;;15.05;;
2650;SDS011;1335;48.180;16.342;2024-01-10T14:27:26;24.92;;;15.75;;
2650;SDS011;1335;48.180;16.342;2024-01-10T14:29:54;22.90;;;16.08;;
2650;SDS011;1335;48.180;16.342;2024-01-10T14:32:22;23.95;;;15.80;;
2650;SDS011;1335;48.180;16.342;2024-01-10T14:34:49;26.80;;;15.32;;
2650;SDS011;1335;48.180;16.342;2024-01-10T14:37:17;28.30;;;15.25;;
2650;SDS011;1335;48.180;16.342;2024-01-10T14:39:46;23.42;;;13.65;;
2650;SDS011;1335;48.180;16.342;2024-01-10T14:42:13;27.35;;;16.92;;